Time;durP1;ratioP1;P1;durP2;ratioP2;P2;SDS_P1;SDS_P2;PMS_P1;PMS_P2;Temp;Humidity;BMP_temperature;BMP_pressure;BME280_temperature;BME280_humidity;BME280_pressure;Samples;Min_cycle;Max_cycle;Signal;HPM_P1;HPM_P2
2023/08/05 00:00:51;;;;;;;3.00;2.72;;;;;;;;;;5004388;28;20153;-71
2023/08/05 00:03:16;;;;;;;3.35;3.05;;;;;;;;;;5003731;28;20083;-69
2023/08/05 00:05:42;;;;;;;8.93;3.10;;;;;;;;;;5002752;28;20157;-71
2023/08/05 00:08:08;;;;;;;3.92;2.70;;;;;;;;;;5001028;28;20054;-71
2023/08/05 00:10:33;;;;;;;4.70;2.40;;;;;;;;;;5003084;28;20046;-71
2023/08/05 00:12:59;;;;;;;2.90;2.35;;;;;;;;;;5010865;28;20138;-70
2023/08/05 00:15:25;;;;;;;3.55;2.55;;;;;;;;;;5002170;28;20054;-72
2023/08/05 00:17:50;;;;;;;4.18;2.38;;;;;;;;;;5002708;28;20124;-71
2023/08/05 00:20:15;;;;;;;4.38;2.20;;;;;;;;;;5006667;28;20048;-71
2023/08/05 00:22:41;;;;;;;2.90;2.40;;;;;;;;;;5003494;28;20092;-70
2023/08/05 00:25:07;;;;;;;3.47;2.63;;;;;;;;;;5002130;28;20069;-72
2023/08/05 00:27:32;;;;;;;8.35;2.42;;;;;;;;;;5000807;28;20081;-72
2023/08/05 00:29:57;;;;;;;3.58;2.05;;;;;;;;;;5002948;28;20046;-71
2023/08/05 00:32:23;;;;;;;2.88;1.95;;;;;;;;;;5000300;28;20049;-71
2023/08/05 00:34:48;;;;;;;2.03;1.92;;;;;;;;;;5012300;28;20100;-71
2023/08/05 00:37:14;;;;;;;3.05;2.05;;;;;;;;;;5000679;28;20042;-70
2023/08/05 00:39:40;;;;;;;2.00;1.75;;;;;;;;;;5017478;28;20045;-69
2023/08/05 00:42:06;;;;;;;2.22;1.80;;;;;;;;;;5006061;28;20049;-70
2023/08/05 00:44:31;;;;;;;2.47;1.92;;;;;;;;;;5001208;28;20049;-72
2023/08/05 00:46:57;;;;;;;4.30;1.98;;;;;;;;;;5001330;28;20450;-71
2023/08/05 00:49:23;;;;;;;2.63;1.90;;;;;;;;;;5000208;28;20045;-71
2023/08/05 00:51:50;;;;;;;2.30;2.10;;;;;;;;;;5002584;28;20064;-71
2023/08/05 00:54:16;;;;;;;2.00;1.90;;;;;;;;;;5001579;28;20057;-71
2023/08/05 00:56:43;;;;;;;2.17;1.98;;;;;;;;;;5001947;28;20129;-70
2023/08/05 00:59:09;;;;;;;4.00;2.05;;;;;;;;;;5002247;28;20049;-71
2023/08/05 01:01:35;;;;;;;2.42;2.22;;;;;;;;;;5001252;28;20045;-71
2023/08/05 01:04:01;;;;;;;3.08;2.28;;;;;;;;;;5001975;28;20069;-71
2023/08/05 01:06:28;;;;;;;2.03;1.92;;;;;;;;;;4999855;28;20491;-71
2023/08/05 01:08:54;;;;;;;2.22;2.03;;;;;;;;;;5000704;28;20077;-70
2023/08/05 01:11:21;;;;;;;6.13;2.05;;;;;;;;;;5000023;28;20041;-71
2023/08/05 01:13:47;;;;;;;4.93;2.10;;;;;;;;;;4999665;28;20053;-71
2023/08/05 01:16:14;;;;;;;3.60;2.00;;;;;;;;;;4998768;28;20053;-71
2023/08/05 01:18:41;;;;;;;2.25;2.05;;;;;;;;;;5000040;28;20045;-71
2023/08/05 01:21:16;;;;;;;2.45;2.08;;;;;;;;;;4998406;28;20054;-71
2023/08/05 01:23:54;;;;;;;2.55;2.25;;;;;;;;;;5017381;28;20104;-71
2023/08/05 01:26:20;;;;;;;2.60;2.38;;;;;;;;;;4999310;28;20053;-71
2023/08/05 01:28:46;;;;;;;6.18;2.50;;;;;;;;;;5000116;28;20065;-69
2023/08/05 01:31:14;;;;;;;4.45;2.35;;;;;;;;;;5000105;28;20046;-71
2023/08/05 01:33:40;;;;;;;6.30;2.50;;;;;;;;;;5001658;28;20053;-70
2023/08/05 01:36:05;;;;;;;2.70;2.50;;;;;;;;;;4999241;28;20048;-69
2023/08/05 01:38:31;;;;;;;2.85;2.25;;;;;;;;;;4998703;28;20049;-70
2023/08/05 01:40:57;;;;;;;2.30;2.10;;;;;;;;;;5000019;28;20065;-69
2023/08/05 01:43:23;;;;;;;4.38;2.50;;;;;;;;;;5000253;28;20038;-70
2023/08/05 01:45:49;;;;;;;4.00;2.40;;;;;;;;;;5000730;28;20211;-70
2023/08/05 01:48:14;;;;;;;3.60;2.30;;;;;;;;;;5001245;28;20160;-69
2023/08/05 01:50:40;;;;;;;2.47;2.28;;;;;;;;;;5001350;28;20410;-70
2023/08/05 01:53:05;;;;;;;4.47;2.38;;;;;;;;;;5002114;28;20065;-68
2023/08/05 01:55:30;;;;;;;3.75;2.47;;;;;;;;;;5003301;28;20042;-69
2023/08/05 01:57:56;;;;;;;2.60;2.40;;;;;;;;;;4999285;28;20521;-70
2023/08/05 02:00:22;;;;;;;3.25;2.38;;;;;;;;;;4998617;28;20038;-68
2023/08/05 02:02:47;;;;;;;3.95;2.33;;;;;;;;;;5004292;28;20045;-69
2023/08/05 02:05:12;;;;;;;3.22;2.85;;;;;;;;;;5004136;28;20076;-69
2023/08/05 02:07:38;;;;;;;3.10;2.75;;;;;;;;;;5002613;28;20049;-70
2023/08/05 02:10:04;;;;;;;3.83;2.90;;;;;;;;;;4999284;28;20529;-70
2023/08/05 02:12:29;;;;;;;2.80;2.60;;;;;;;;;;5000491;28;20049;-70
2023/08/05 02:14:55;;;;;;;3.35;2.97;;;;;;;;;;4999217;28;20042;-70
2023/08/05 02:17:21;;;;;;;5.18;3.28;;;;;;;;;;4984924;28;20725;-69
2023/08/05 02:19:46;;;;;;;4.15;3.00;;;;;;;;;;5004935;28;20088;-71
2023/08/05 02:22:12;;;;;;;5.57;3.55;;;;;;;;;;4999183;28;20064;-69
2023/08/05 02:24:38;;;;;;;7.25;3.63;;;;;;;;;;4999752;28;20095;-70
2023/08/05 02:27:04;;;;;;;4.18;3.00;;;;;;;;;;5001216;28;20129;-70
2023/08/05 02:29:30;;;;;;;4.30;3.33;;;;;;;;;;5000627;28;20742;-70
2023/08/05 02:31:55;;;;;;;3.78;3.10;;;;;;;;;;4998935;28;20076;-70
2023/08/05 02:34:21;;;;;;;3.10;2.80;;;;;;;;;;5000257;28;20046;-71
2023/08/05 02:36:48;;;;;;;3.28;2.97;;;;;;;;;;5002983;28;20046;-69
2023/08/05 02:39:14;;;;;;;4.60;2.80;;;;;;;;;;5003805;28;20045;-69
2023/08/05 02:41:40;;;;;;;3.00;2.70;;;;;;;;;;5001229;28;20052;-69
2023/08/05 02:44:05;;;;;;;3.22;2.70;;;;;;;;;;4999588;28;20069;-71
2023/08/05 02:46:31;;;;;;;6.13;2.88;;;;;;;;;;5004150;28;20084;-71
2023/08/05 02:48:56;;;;;;;4.47;2.65;;;;;;;;;;5000640;28;20486;-70
2023/08/05 02:51:22;;;;;;;5.80;2.75;;;;;;;;;;4998317;28;20045;-70
2023/08/05 02:53:47;;;;;;;3.83;2.70;;;;;;;;;;4998806;28;20065;-70
2023/08/05 02:56:13;;;;;;;2.85;2.65;;;;;;;;;;4999298;28;20042;-70
2023/08/05 02:58:38;;;;;;;4.55;2.80;;;;;;;;;;5001678;28;20074;-70
2023/08/05 03:01:08;;;;;;;2.88;2.67;;;;;;;;;;4998712;28;20244;-70
2023/08/05 03:03:35;;;;;;;7.55;2.83;;;;;;;;;;4999395;28;20050;-70
2023/08/05 03:06:00;;;;;;;4.13;3.03;;;;;;;;;;5000263;28;20037;-70
2023/08/05 03:08:26;;;;;;;5.75;3.25;;;;;;;;;;4997849;28;20053;-69
2023/08/05 03:10:59;;;;;;;3.45;3.15;;;;;;;;;;4998855;28;20057;-70
2023/08/05 03:13:25;;;;;;;5.68;3.42;;;;;;;;;;4998110;28;20168;-70
2023/08/05 03:15:51;;;;;;;3.45;3.15;;;;;;;;;;5010135;28;20139;-69
2023/08/05 03:18:17;;;;;;;4.93;3.75;;;;;;;;;;4997411;28;20470;-69
2023/08/05 03:20:44;;;;;;;5.47;2.95;;;;;;;;;;4998924;28;20045;-70
2023/08/05 03:23:13;;;;;;;6.10;3.58;;;;;;;;;;5003028;28;20037;-69
2023/08/05 03:25:41;;;;;;;4.20;3.33;;;;;;;;;;5002537;28;20056;-69
2023/08/05 03:28:10;;;;;;;8.10;3.60;;;;;;;;;;5020823;28;20125;-70
2023/08/05 03:30:40;;;;;;;5.60;3.90;;;;;;;;;;4997860;28;20056;-70
2023/08/05 03:33:09;;;;;;;4.20;3.80;;;;;;;;;;4999554;28;20511;-69
2023/08/05 03:35:35;;;;;;;5.53;3.88;;;;;;;;;;5000889;28;20046;-70
2023/08/05 03:38:02;;;;;;;5.22;3.80;;;;;;;;;;5017424;28;20499;-70
2023/08/05 03:40:27;;;;;;;4.25;3.53;;;;;;;;;;5001599;28;20111;-69
2023/08/05 03:42:53;;;;;;;4.82;3.83;;;;;;;;;;5002302;28;20046;-69
2023/08/05 03:45:18;;;;;;;4.10;3.70;;;;;;;;;;5004059;28;20112;-69
2023/08/05 03:47:44;;;;;;;3.97;3.60;;;;;;;;;;5002879;28;20116;-69
2023/08/05 03:50:09;;;;;;;4.28;3.88;;;;;;;;;;5001813;28;20045;-69
2023/08/05 03:52:35;;;;;;;3.80;3.50;;;;;;;;;;5003544;28;20380;-69
2023/08/05 03:55:01;;;;;;;4.03;3.60;;;;;;;;;;5003505;28;20157;-69
2023/08/05 03:57:28;;;;;;;4.45;3.60;;;;;;;;;;5001438;28;20458;-70
2023/08/05 03:59:56;;;;;;;5.25;3.70;;;;;;;;;;5002077;28;20056;-69
2023/08/05 04:02:21;;;;;;;4.10;3.53;;;;;;;;;;5004297;28;20041;-69
2023/08/05 04:04:48;;;;;;;4.10;3.70;;;;;;;;;;5002133;28;20069;-69
2023/08/05 04:07:14;;;;;;;6.82;3.70;;;;;;;;;;5001997;28;20046;-70
2023/08/05 04:09:40;;;;;;;3.67;3.38;;;;;;;;;;5004475;28;20503;-69
2023/08/05 04:12:09;;;;;;;4.72;2.95;;;;;;;;;;5002059;28;20056;-69
2023/08/05 04:14:35;;;;;;;4.97;2.42;;;;;;;;;;4984698;28;20050;-69
2023/08/05 04:17:02;;;;;;;2.78;2.47;;;;;;;;;;5004033;28;20121;-69
2023/08/05 04:19:28;;;;;;;3.30;2.60;;;;;;;;;;5005461;28;20049;-69
2023/08/05 04:21:54;;;;;;;3.55;2.80;;;;;;;;;;5001483;28;20057;-69
2023/08/05 04:24:22;;;;;;;2.75;2.55;;;;;;;;;;5002228;28;20411;-69
2023/08/05 04:26:50;;;;;;;3.70;2.35;;;;;;;;;;5001711;28;20046;-68
2023/08/05 04:29:17;;;;;;;3.10;2.80;;;;;;;;;;5002883;28;20097;-69
2023/08/05 04:31:43;;;;;;;2.50;2.30;;;;;;;;;;5003849;28;20053;-69
2023/08/05 04:34:08;;;;;;;3.08;2.78;;;;;;;;;;5003062;28;20057;-69
2023/08/05 04:36:33;;;;;;;2.95;2.50;;;;;;;;;;5002313;28;20045;-70
2023/08/05 04:39:02;;;;;;;3.65;2.53;;;;;;;;;;5002508;28;20038;-70
2023/08/05 04:41:28;;;;;;;3.22;2.88;;;;;;;;;;5003593;28;20081;-69
2023/08/05 04:43:53;;;;;;;3.28;2.97;;;;;;;;;;5002141;28;20547;-70
2023/08/05 04:46:19;;;;;;;3.65;2.70;;;;;;;;;;5001700;28;20046;-70
2023/08/05 04:48:44;;;;;;;3.47;3.17;;;;;;;;;;5002477;28;20041;-69
2023/08/05 04:51:09;;;;;;;7.15;3.40;;;;;;;;;;5002422;28;20491;-70
2023/08/05 04:53:35;;;;;;;3.90;3.47;;;;;;;;;;5004450;28;20115;-70
2023/08/05 04:56:00;;;;;;;3.97;3.58;;;;;;;;;;5002435;28;20044;-69
2023/08/05 04:58:26;;;;;;;5.28;4.22;;;;;;;;;;5002126;28;20540;-70
2023/08/05 05:00:56;;;;;;;4.32;3.92;;;;;;;;;;5002373;28;20037;-69
2023/08/05 05:03:21;;;;;;;4.93;4.43;;;;;;;;;;5001914;28;20042;-70
2023/08/05 05:05:47;;;;;;;6.03;4.70;;;;;;;;;;5003702;28;20053;-69
2023/08/05 05:08:12;;;;;;;5.40;4.13;;;;;;;;;;5010869;28;20045;-70
2023/08/05 05:10:37;;;;;;;4.50;4.10;;;;;;;;;;5011611;28;20053;-69
2023/08/05 05:13:03;;;;;;;5.18;4.20;;;;;;;;;;5013446;28;20038;-70
2023/08/05 05:15:28;;;;;;;4.50;4.10;;;;;;;;;;5008203;28;20116;-69
2023/08/05 05:17:54;;;;;;;5.65;4.43;;;;;;;;;;5012045;28;20483;-69
2023/08/05 05:20:19;;;;;;;5.55;4.40;;;;;;;;;;5005539;28;20116;-69
2023/08/05 05:22:45;;;;;;;6.00;4.70;;;;;;;;;;5000481;28;20671;-69
2023/08/05 05:25:10;;;;;;;6.97;4.93;;;;;;;;;;5000064;28;20046;-69
2023/08/05 05:27:35;;;;;;;5.20;4.63;;;;;;;;;;5001580;28;20061;-69
2023/08/05 05:30:02;;;;;;;5.25;4.63;;;;;;;;;;5001841;28;20042;-69
2023/08/05 05:32:27;;;;;;;5.55;4.95;;;;;;;;;;5000207;28;20052;-69
2023/08/05 05:34:53;;;;;;;5.00;4.40;;;;;;;;;;5008470;28;20057;-69
2023/08/05 05:37:18;;;;;;;5.72;3.83;;;;;;;;;;5005617;28;20081;-69
2023/08/05 05:39:44;;;;;;;5.07;4.55;;;;;;;;;;5009960;28;20055;-69
2023/08/05 05:42:10;;;;;;;5.65;5.05;;;;;;;;;;5011704;28;20522;-69
2023/08/05 05:44:38;;;;;;;5.18;4.68;;;;;;;;;;5010598;28;20046;-69
2023/08/05 05:47:07;;;;;;;5.55;4.25;;;;;;;;;;5009670;28;20100;-69
2023/08/05 05:49:33;;;;;;;5.10;4.60;;;;;;;;;;5010223;28;20054;-69
2023/08/05 05:51:58;;;;;;;4.95;4.45;;;;;;;;;;5011611;28;20057;-69
2023/08/05 05:54:24;;;;;;;6.50;4.93;;;;;;;;;;5003843;28;20062;-69
2023/08/05 05:56:49;;;;;;;5.30;4.47;;;;;;;;;;5005032;28;20049;-69
2023/08/05 05:59:15;;;;;;;5.75;5.10;;;;;;;;;;5009094;28;20052;-69
2023/08/05 06:01:40;;;;;;;7.22;5.00;;;;;;;;;;5008799;28;20104;-69
2023/08/05 06:04:09;;;;;;;6.05;5.47;;;;;;;;;;5006357;28;21051;-70
2023/08/05 06:06:36;;;;;;;7.90;5.75;;;;;;;;;;5009123;28;20164;-70
2023/08/05 06:09:03;;;;;;;10.98;5.95;;;;;;;;;;5012875;28;20045;-69
2023/08/05 06:11:31;;;;;;;7.78;6.32;;;;;;;;;;5007394;28;20049;-70
2023/08/05 06:13:56;;;;;;;7.68;6.05;;;;;;;;;;5024687;28;20108;-69
2023/08/05 06:16:22;;;;;;;7.57;6.55;;;;;;;;;;5009005;28;20045;-71
2023/08/05 06:18:47;;;;;;;7.28;6.00;;;;;;;;;;5012485;28;20045;-70
2023/08/05 06:21:13;;;;;;;7.43;5.43;;;;;;;;;;5010911;28;20783;-70
2023/08/05 06:23:38;;;;;;;7.78;6.68;;;;;;;;;;5009239;28;20141;-70
2023/08/05 06:26:04;;;;;;;8.73;6.50;;;;;;;;;;5007410;28;20069;-70
2023/08/05 06:28:29;;;;;;;8.65;6.60;;;;;;;;;;4999948;28;20065;-70
2023/08/05 06:30:55;;;;;;;10.38;6.65;;;;;;;;;;5005331;28;20057;-70
2023/08/05 06:33:21;;;;;;;8.50;6.80;;;;;;;;;;5008399;28;20057;-71
2023/08/05 06:35:46;;;;;;;7.65;6.63;;;;;;;;;;5010615;28;20045;-71
2023/08/05 06:38:11;;;;;;;7.78;6.57;;;;;;;;;;5008295;28;20064;-71
2023/08/05 06:40:40;;;;;;;9.55;6.53;;;;;;;;;;5008679;28;20058;-70
2023/08/05 06:43:06;;;;;;;7.65;6.07;;;;;;;;;;5008582;28;20116;-70
2023/08/05 06:45:31;;;;;;;9.98;6.57;;;;;;;;;;5008603;28;20718;-70
2023/08/05 06:47:57;;;;;;;8.00;6.72;;;;;;;;;;5010017;28;20411;-70
2023/08/05 06:50:23;;;;;;;7.40;6.45;;;;;;;;;;5010892;28;20041;-70
2023/08/05 06:52:49;;;;;;;8.95;7.20;;;;;;;;;;5008454;28;20103;-70
2023/08/05 06:55:17;;;;;;;10.77;7.15;;;;;;;;;;5010717;28;20114;-70
2023/08/05 06:57:42;;;;;;;8.52;7.35;;;;;;;;;;5006115;28;20495;-70
2023/08/05 07:00:09;;;;;;;8.27;6.72;;;;;;;;;;5009605;28;20084;-70
2023/08/05 07:02:35;;;;;;;8.18;6.97;;;;;;;;;;5007046;28;20580;-70
2023/08/05 07:05:00;;;;;;;9.60;6.93;;;;;;;;;;5008355;28;20050;-70
2023/08/05 07:07:26;;;;;;;9.07;7.35;;;;;;;;;;5010290;28;20081;-70
2023/08/05 07:09:51;;;;;;;8.55;6.82;;;;;;;;;;5005962;28;20068;-70
2023/08/05 07:12:16;;;;;;;7.63;6.63;;;;;;;;;;5006830;28;20045;-70
2023/08/05 07:14:44;;;;;;;9.13;6.85;;;;;;;;;;5000507;28;20154;-70
2023/08/05 07:17:10;;;;;;;8.35;7.07;;;;;;;;;;5003911;28;20073;-69
2023/08/05 07:19:36;;;;;;;9.23;7.25;;;;;;;;;;5002699;28;20203;-70
2023/08/05 07:22:01;;;;;;;8.30;6.90;;;;;;;;;;5000132;28;20407;-70
2023/08/05 07:24:26;;;;;;;9.55;7.25;;;;;;;;;;5004359;28;20073;-69
2023/08/05 07:26:52;;;;;;;9.25;7.22;;;;;;;;;;5005028;28;20783;-69
2023/08/05 07:29:17;;;;;;;9.48;7.40;;;;;;;;;;5005935;28;20073;-69
2023/08/05 07:31:43;;;;;;;10.98;7.60;;;;;;;;;;5005185;28;20050;-69
2023/08/05 07:34:09;;;;;;;8.15;6.88;;;;;;;;;;5007784;28;20403;-70
2023/08/05 07:36:35;;;;;;;9.45;7.47;;;;;;;;;;5007157;28;20088;-70
2023/08/05 07:39:06;;;;;;;10.60;7.00;;;;;;;;;;5008190;28;20473;-69
2023/08/05 07:41:31;;;;;;;9.73;6.82;;;;;;;;;;5022322;28;20045;-70
2023/08/05 07:44:00;;;;;;;7.65;6.40;;;;;;;;;;5007415;28;20046;-70
2023/08/05 07:46:26;;;;;;;9.27;6.47;;;;;;;;;;5005056;28;20045;-69
2023/08/05 07:48:55;;;;;;;9.05;6.88;;;;;;;;;;5005067;28;20096;-69
2023/08/05 07:51:20;;;;;;;9.52;6.65;;;;;;;;;;5006061;28;20712;-69
2023/08/05 07:53:48;;;;;;;10.38;7.60;;;;;;;;;;5008005;28;20100;-70
2023/08/05 07:56:16;;;;;;;9.25;7.07;;;;;;;;;;5004270;28;20503;-70
2023/08/05 07:58:47;;;;;;;8.30;6.00;;;;;;;;;;4981152;28;20046;-69
2023/08/05 08:01:19;;;;;;;9.32;7.22;;;;;;;;;;5020302;28;20052;-69
2023/08/05 08:03:45;;;;;;;9.55;7.28;;;;;;;;;;5003686;28;20042;-70
2023/08/05 08:06:14;;;;;;;9.45;6.85;;;;;;;;;;5002759;28;20034;-70
2023/08/05 08:08:39;;;;;;;7.55;6.40;;;;;;;;;;5001602;28;20087;-69
2023/08/05 08:11:05;;;;;;;9.13;6.55;;;;;;;;;;5004145;28;20128;-68
2023/08/05 08:13:30;;;;;;;7.47;5.95;;;;;;;;;;5007437;28;20050;-69
2023/08/05 08:15:56;;;;;;;7.63;6.13;;;;;;;;;;5007378;28;20065;-69
2023/08/05 08:18:21;;;;;;;9.35;6.18;;;;;;;;;;5003023;28;20148;-68
2023/08/05 08:20:50;;;;;;;9.00;7.22;;;;;;;;;;5009309;28;20045;-69
2023/08/05 08:23:16;;;;;;;9.52;6.18;;;;;;;;;;4999389;28;20041;-68
2023/08/05 08:25:41;;;;;;;8.82;6.25;;;;;;;;;;5011543;28;20076;-69
2023/08/05 08:28:07;;;;;;;8.07;6.63;;;;;;;;;;5012442;28;20045;-68
2023/08/05 08:30:32;;;;;;;8.50;6.80;;;;;;;;;;5011746;28;20107;-70
2023/08/05 08:32:58;;;;;;;7.53;5.95;;;;;;;;;;5009715;28;20137;-69
2023/08/05 08:35:23;;;;;;;10.85;5.80;;;;;;;;;;5014952;28;20045;-69
2023/08/05 08:37:49;;;;;;;7.05;5.82;;;;;;;;;;5011746;28;20051;-70
2023/08/05 08:40:14;;;;;;;9.07;6.53;;;;;;;;;;5004348;28;20884;-71
2023/08/05 08:42:42;;;;;;;8.25;6.68;;;;;;;;;;5003970;28;20554;-68
2023/08/05 08:45:09;;;;;;;9.32;6.75;;;;;;;;;;5003400;28;20070;-71
2023/08/05 08:47:37;;;;;;;8.70;6.88;;;;;;;;;;4998777;28;20137;-71
2023/08/05 08:50:02;;;;;;;8.40;6.45;;;;;;;;;;5001435;28;20953;-70
2023/08/05 08:52:30;;;;;;;6.70;6.00;;;;;;;;;;5005366;28;20697;-69
2023/08/05 08:54:55;;;;;;;7.75;5.95;;;;;;;;;;5005497;28;20049;-70
2023/08/05 08:57:22;;;;;;;7.15;5.75;;;;;;;;;;5010168;28;20057;-68
2023/08/05 08:59:48;;;;;;;8.02;6.15;;;;;;;;;;5005732;28;20044;-70
2023/08/05 09:02:22;;;;;;;6.93;6.00;;;;;;;;;;5007240;28;20042;-69
2023/08/05 09:04:49;;;;;;;6.97;5.53;;;;;;;;;;5007772;28;20124;-69
2023/08/05 09:07:14;;;;;;;6.97;5.47;;;;;;;;;;5009925;28;20045;-69
2023/08/05 09:09:40;;;;;;;7.22;5.93;;;;;;;;;;5005409;28;20041;-70
2023/08/05 09:12:06;;;;;;;7.57;5.50;;;;;;;;;;5005525;28;20049;-69
2023/08/05 09:14:33;;;;;;;7.25;5.28;;;;;;;;;;5008220;28;20054;-69
2023/08/05 09:17:00;;;;;;;5.72;5.13;;;;;;;;;;5004686;28;20115;-69
2023/08/05 09:19:28;;;;;;;5.93;5.20;;;;;;;;;;5005904;28;20145;-69
2023/08/05 09:22:00;;;;;;;7.75;5.15;;;;;;;;;;5007875;28;20050;-69
2023/08/05 09:24:26;;;;;;;5.70;5.03;;;;;;;;;;5007731;28;20604;-69
2023/08/05 09:26:58;;;;;;;7.85;5.82;;;;;;;;;;5003609;28;20054;-69
2023/08/05 09:29:25;;;;;;;9.38;6.00;;;;;;;;;;5005617;28;20041;-69
2023/08/05 09:31:58;;;;;;;8.00;5.80;;;;;;;;;;5009501;28;20095;-70
2023/08/05 09:34:34;;;;;;;6.72;5.88;;;;;;;;;;5004765;28;20527;-69
2023/08/05 09:37:00;;;;;;;6.63;5.93;;;;;;;;;;5004611;28;20050;-69
2023/08/05 09:39:30;;;;;;;8.88;6.68;;;;;;;;;;5003977;28;20056;-70
2023/08/05 09:41:56;;;;;;;8.48;6.28;;;;;;;;;;5008358;28;20046;-69
2023/08/05 09:44:21;;;;;;;8.93;7.40;;;;;;;;;;5005253;28;20052;-69
2023/08/05 09:46:48;;;;;;;8.98;7.50;;;;;;;;;;5007460;28;20041;-70
2023/08/05 09:49:15;;;;;;;9.77;7.00;;;;;;;;;;5003959;28;20045;-69
2023/08/05 09:51:46;;;;;;;9.70;7.18;;;;;;;;;;5003547;28;20084;-70
2023/08/05 09:54:14;;;;;;;10.57;7.63;;;;;;;;;;5008552;28;20347;-70
2023/08/05 09:56:40;;;;;;;9.57;7.50;;;;;;;;;;5012471;28;20058;-69
2023/08/05 09:59:12;;;;;;;10.10;7.30;;;;;;;;;;5006218;28;20048;-69
2023/08/05 10:01:39;;;;;;;9.93;8.15;;;;;;;;;;5005104;28;20052;-70
2023/08/05 10:04:05;;;;;;;12.55;9.38;;;;;;;;;;5009546;28;20142;-70
2023/08/05 10:06:31;;;;;;;8.68;7.15;;;;;;;;;;4999230;28;20675;-70
2023/08/05 10:08:57;;;;;;;8.85;7.20;;;;;;;;;;5007683;28;20057;-70
2023/08/05 10:11:24;;;;;;;7.65;6.72;;;;;;;;;;5011809;28;20080;-70
2023/08/05 10:13:53;;;;;;;9.57;7.28;;;;;;;;;;4999963;28;20582;-70
2023/08/05 10:16:20;;;;;;;9.25;6.57;;;;;;;;;;5006852;28;20483;-69
2023/08/05 10:18:46;;;;;;;7.88;6.88;;;;;;;;;;5000862;28;20041;-69
2023/08/05 10:21:12;;;;;;;8.50;6.82;;;;;;;;;;5003273;28;20112;-69
2023/08/05 10:23:38;;;;;;;8.13;7.22;;;;;;;;;;5005795;28;20523;-69
2023/08/05 10:26:05;;;;;;;8.27;7.25;;;;;;;;;;5008885;28;20042;-70
2023/08/05 10:28:33;;;;;;;9.95;6.95;;;;;;;;;;5009502;28;20064;-70
2023/08/05 10:31:02;;;;;;;8.07;7.18;;;;;;;;;;5002835;28;20050;-69
2023/08/05 10:33:28;;;;;;;10.00;7.20;;;;;;;;;;5002865;28;20141;-70
2023/08/05 10:36:02;;;;;;;7.28;6.50;;;;;;;;;;5009087;28;20119;-70
2023/08/05 10:38:27;;;;;;;7.85;6.63;;;;;;;;;;5005999;28;20068;-69
2023/08/05 10:41:00;;;;;;;8.20;5.95;;;;;;;;;;5005669;28;20503;-70
2023/08/05 10:43:41;;;;;;;5.50;4.95;;;;;;;;;;5005390;28;20100;-69
2023/08/05 10:46:06;;;;;;;5.95;5.32;;;;;;;;;;5005766;28;20519;-69
2023/08/05 10:49:05;;;;;;;5.80;5.20;;;;;;;;;;5006491;28;20080;-69
2023/08/05 10:51:32;;;;;;;5.53;4.90;;;;;;;;;;4985211;28;20351;-69
2023/08/05 10:53:59;;;;;;;5.72;5.00;;;;;;;;;;5005685;28;20052;-69
2023/08/05 10:56:43;;;;;;;6.13;5.32;;;;;;;;;;5007120;28;20105;-70
2023/08/05 10:59:09;;;;;;;6.18;5.57;;;;;;;;;;5004645;28;20048;-70
2023/08/05 11:01:57;;;;;;;4.90;4.50;;;;;;;;;;5008576;28;20037;-68
2023/08/05 11:04:30;;;;;;;4.72;4.32;;;;;;;;;;5006246;28;20046;-70
2023/08/05 11:06:59;;;;;;;4.40;4.00;;;;;;;;;;5003146;28;20077;-69
2023/08/05 11:09:25;;;;;;;6.80;4.30;;;;;;;;;;5003578;28;20591;-68
2023/08/05 11:11:52;;;;;;;5.18;4.70;;;;;;;;;;5006172;28;20040;-68
2023/08/05 11:14:19;;;;;;;5.00;4.40;;;;;;;;;;5004270;28;20153;-70
2023/08/05 11:16:47;;;;;;;3.88;3.58;;;;;;;;;;5011033;28;20054;-69
2023/08/05 11:19:13;;;;;;;4.10;3.80;;;;;;;;;;5005950;28;20045;-69
2023/08/05 11:21:43;;;;;;;4.18;3.80;;;;;;;;;;5007338;28;20053;-69
2023/08/05 11:24:18;;;;;;;3.60;3.30;;;;;;;;;;5007916;28;20044;-70
2023/08/05 11:26:44;;;;;;;3.55;3.25;;;;;;;;;;5009506;28;20503;-69
2023/08/05 11:29:10;;;;;;;3.00;2.80;;;;;;;;;;5009586;28;20136;-69
2023/08/05 11:31:35;;;;;;;3.60;3.30;;;;;;;;;;5006846;28;20050;-70
2023/08/05 11:34:01;;;;;;;3.30;3.00;;;;;;;;;;5007582;28;20480;-70
2023/08/05 11:36:28;;;;;;;3.88;3.22;;;;;;;;;;5008362;28;20045;-70
2023/08/05 11:38:57;;;;;;;5.18;3.10;;;;;;;;;;5006155;28;20049;-70
2023/08/05 11:41:27;;;;;;;3.85;3.55;;;;;;;;;;5022526;28;20103;-69
2023/08/05 11:43:54;;;;;;;4.40;3.78;;;;;;;;;;5011295;28;20175;-69
2023/08/05 11:46:29;;;;;;;5.55;3.78;;;;;;;;;;5010510;28;20053;-69
2023/08/05 11:49:12;;;;;;;6.03;4.40;;;;;;;;;;5008380;28;20095;-70
2023/08/05 11:51:48;;;;;;;3.72;3.42;;;;;;;;;;5007953;28;20046;-71
2023/08/05 11:54:44;;;;;;;3.53;3.22;;;;;;;;;;5007365;28;20045;-70
2023/08/05 11:57:19;;;;;;;3.80;3.50;;;;;;;;;;4998778;28;20288;-70
2023/08/05 11:59:46;;;;;;;3.80;3.50;;;;;;;;;;5010048;28;20490;-69
2023/08/05 12:02:13;;;;;;;4.75;4.25;;;;;;;;;;5010236;28;20042;-69
2023/08/05 12:04:43;;;;;;;4.07;3.70;;;;;;;;;;5008819;28;20066;-70
2023/08/05 12:07:13;;;;;;;4.00;3.30;;;;;;;;;;5009283;28;20049;-71
2023/08/05 12:09:39;;;;;;;3.35;3.15;;;;;;;;;;5025884;28;20180;-70
2023/08/05 12:12:05;;;;;;;3.65;3.33;;;;;;;;;;5010697;28;20575;-70
2023/08/05 12:14:31;;;;;;;4.57;3.78;;;;;;;;;;5005770;28;20038;-72
2023/08/05 12:16:59;;;;;;;4.22;3.75;;;;;;;;;;5007574;28;20064;-70
2023/08/05 12:19:29;;;;;;;4.30;3.90;;;;;;;;;;5006161;28;20034;-71
2023/08/05 12:21:54;;;;;;;4.10;3.70;;;;;;;;;;5009448;28;20045;-71
2023/08/05 12:24:20;;;;;;;3.88;3.58;;;;;;;;;;5007448;28;20056;-71
2023/08/05 12:26:46;;;;;;;3.75;3.45;;;;;;;;;;5012857;28;20049;-71
2023/08/05 12:29:14;;;;;;;4.05;3.70;;;;;;;;;;5012994;28;20095;-72
2023/08/05 12:31:40;;;;;;;3.50;3.20;;;;;;;;;;5012292;28;20050;-72
2023/08/05 12:34:05;;;;;;;3.40;3.10;;;;;;;;;;5002949;28;20052;-73
2023/08/05 12:36:31;;;;;;;3.25;3.03;;;;;;;;;;5002785;28;20053;-72
2023/08/05 12:38:57;;;;;;;3.10;2.90;;;;;;;;;;5008058;28;20050;-71
2023/08/05 12:41:23;;;;;;;3.70;3.40;;;;;;;;;;5011400;28;20041;-73
2023/08/05 12:43:49;;;;;;;4.20;3.80;;;;;;;;;;5012792;28;20084;-72
2023/08/05 12:46:15;;;;;;;4.10;3.70;;;;;;;;;;5010185;28;20281;-73
2023/08/05 12:48:40;;;;;;;4.15;3.50;;;;;;;;;;5007081;28;20045;-73
2023/08/05 12:51:06;;;;;;;4.68;3.45;;;;;;;;;;5008890;28;20172;-72
2023/08/05 12:53:31;;;;;;;3.60;3.33;;;;;;;;;;5004939;28;20049;-72
2023/08/05 12:55:57;;;;;;;4.07;3.67;;;;;;;;;;4996835;28;20499;-71
2023/08/05 12:58:22;;;;;;;3.95;3.65;;;;;;;;;;5004422;28;20106;-72
2023/08/05 13:00:47;;;;;;;3.50;3.20;;;;;;;;;;5000402;28;20061;-72
2023/08/05 13:03:13;;;;;;;4.28;3.88;;;;;;;;;;5007429;28;20482;-72
2023/08/05 13:05:38;;;;;;;4.43;4.03;;;;;;;;;;5005156;28;20080;-72
2023/08/05 13:08:04;;;;;;;3.88;3.58;;;;;;;;;;5007443;28;20151;-72
2023/08/05 13:10:31;;;;;;;4.70;4.30;;;;;;;;;;5006901;28;20049;-73
2023/08/05 13:12:56;;;;;;;5.15;4.65;;;;;;;;;;5008907;28;20068;-72
2023/08/05 13:15:22;;;;;;;5.57;5.07;;;;;;;;;;5004158;28;20796;-72
2023/08/05 13:17:48;;;;;;;6.03;5.18;;;;;;;;;;5007569;28;20695;-72
2023/08/05 13:20:13;;;;;;;8.52;6.05;;;;;;;;;;5005279;28;20042;-73
2023/08/05 13:22:39;;;;;;;12.05;6.05;;;;;;;;;;5009384;28;21177;-72
2023/08/05 13:25:04;;;;;;;6.15;5.45;;;;;;;;;;5010891;28;20044;-73
2023/08/05 13:27:30;;;;;;;5.72;5.13;;;;;;;;;;5009830;28;20548;-72
2023/08/05 13:29:55;;;;;;;6.95;6.18;;;;;;;;;;5004520;28;20053;-72
2023/08/05 13:32:21;;;;;;;7.88;6.47;;;;;;;;;;5008709;28;20130;-71
2023/08/05 13:34:47;;;;;;;7.65;5.90;;;;;;;;;;5011230;28;20414;-72
2023/08/05 13:37:12;;;;;;;7.07;6.38;;;;;;;;;;5009606;28;20041;-73
2023/08/05 13:39:38;;;;;;;6.82;6.22;;;;;;;;;;5009352;28;20166;-72
2023/08/05 13:42:04;;;;;;;6.80;5.90;;;;;;;;;;5000473;28;20267;-72
2023/08/05 13:44:29;;;;;;;8.60;5.85;;;;;;;;;;4998656;28;20048;-71
2023/08/05 13:46:55;;;;;;;6.32;5.72;;;;;;;;;;5000892;28;20053;-73
2023/08/05 13:49:20;;;;;;;7.95;6.10;;;;;;;;;;5001541;28;20518;-72
2023/08/05 13:51:47;;;;;;;6.80;6.10;;;;;;;;;;5010041;28;20056;-73
2023/08/05 13:54:13;;;;;;;8.40;7.45;;;;;;;;;;5001101;28;20115;-73
2023/08/05 13:56:40;;;;;;;7.55;6.80;;;;;;;;;;4999767;28;21106;-73
2023/08/05 13:59:06;;;;;;;7.85;7.05;;;;;;;;;;5001260;28;20084;-73
2023/08/05 14:01:31;;;;;;;8.63;6.68;;;;;;;;;;5006255;28;20077;-73
2023/08/05 14:03:57;;;;;;;8.10;7.07;;;;;;;;;;5006278;28;20084;-72
2023/08/05 14:06:22;;;;;;;9.98;7.78;;;;;;;;;;5010019;28;20038;-71
2023/08/05 14:08:47;;;;;;;9.38;7.47;;;;;;;;;;5006644;28;20483;-73
2023/08/05 14:11:13;;;;;;;9.32;7.75;;;;;;;;;;5002194;28;20045;-74
2023/08/05 14:13:38;;;;;;;9.30;8.05;;;;;;;;;;5006405;28;20056;-73
2023/08/05 14:16:04;;;;;;;9.35;8.10;;;;;;;;;;5001754;28;20490;-72
2023/08/05 14:18:29;;;;;;;11.00;8.13;;;;;;;;;;5003583;28;20049;-71
2023/08/05 14:20:55;;;;;;;8.15;7.35;;;;;;;;;;5006340;28;20073;-71
2023/08/05 14:23:20;;;;;;;8.00;7.25;;;;;;;;;;5007887;28;20623;-72
2023/08/05 14:25:46;;;;;;;8.68;6.70;;;;;;;;;;5009011;28;20054;-73
2023/08/05 14:28:12;;;;;;;8.18;6.93;;;;;;;;;;5000567;28;20080;-72
2023/08/05 14:30:38;;;;;;;7.20;5.63;;;;;;;;;;5007151;28;20053;-70
2023/08/05 14:33:04;;;;;;;7.18;6.13;;;;;;;;;;5001742;28;20061;-74
2023/08/05 14:35:33;;;;;;;6.47;5.43;;;;;;;;;;5008670;28;20441;-72
2023/08/05 14:37:59;;;;;;;7.90;5.80;;;;;;;;;;5004749;28;20084;-73
2023/08/05 14:40:25;;;;;;;7.43;6.55;;;;;;;;;;5004066;28;20128;-74